Terminal Aerodrome Forecast
Issued by NWS Twin Cities, MN

Home | Current Version | Previous Version | Graphics & Text | Print | Product List | Glossary On
Versions: 1 2 3 4 5 6 7 8 9 10 11 12 13 14 15 16 17 18
096
FTUS43 KMPX 050803 AAA
TAFEAU
TAF AMD
KEAU 050803Z 0508/0606 22006KT 6SM BR SCT020
     FM051500 14009KT P6SM OVC090
     FM052000 16011KT P6SM OVC050
     FM060200 18012KT 4SM -RA OVC015=

USA.gov is the U.S. government's official web portal to all federal, state and local government web resources and services.